createdAt,value
2022-11-03T00:00:12.444Z,101240.94
2022-11-03T00:01:15.946Z,101236.56
2022-11-03T00:02:17.625Z,101236.56
2022-11-03T00:03:20.167Z,101234.75
2022-11-03T00:04:23.760Z,101238.16
2022-11-03T00:05:44.239Z,101232.00
2022-11-03T00:06:48.258Z,101237.31
2022-11-03T00:07:50.734Z,101224.72
2022-11-03T00:08:53.636Z,101228.34
2022-11-03T00:09:56.157Z,101219.41
2022-11-03T00:11:02.232Z,101229.19
2022-11-03T00:12:05.118Z,101221.09
2022-11-03T00:13:06.965Z,101226.44
2022-11-03T00:14:11.029Z,101222.06
2022-11-03T00:15:12.655Z,101221.97
2022-11-03T00:16:15.145Z,101221.09
2022-11-03T00:17:16.656Z,101222.78
2022-11-03T00:18:19.117Z,101220.13
2022-11-03T00:19:20.743Z,101217.47
2022-11-03T00:20:23.208Z,101213.00
2022-11-03T00:21:25.215Z,101213.00
2022-11-03T00:22:29.733Z,101210.47
2022-11-03T00:23:33.086Z,101217.47
2022-11-03T00:24:36.905Z,101214.94
2022-11-03T00:25:38.450Z,101213.13
2022-11-03T00:26:40.984Z,101215.78
2022-11-03T00:27:42.507Z,101219.31
2022-11-03T00:28:46.462Z,101222.06
2022-11-03T00:29:47.949Z,101215.78
2022-11-03T00:30:50.414Z,101214.09
2022-11-03T00:31:51.918Z,101211.44
2022-11-03T00:32:54.394Z,101206.09
2022-11-03T00:33:56.434Z,101208.75
2022-11-03T00:34:58.953Z,101207.81
2022-11-03T00:36:01.622Z,101200.69
2022-11-03T00:37:04.139Z,101199.84
2022-11-03T00:38:05.786Z,101200.69
2022-11-03T00:39:09.542Z,101203.19
2022-11-03T00:40:12.993Z,101198.84
2022-11-03T00:41:16.399Z,101193.53
2022-11-03T00:42:17.957Z,101194.50
2022-11-03T00:43:20.406Z,101195.38
2022-11-03T00:44:22.876Z,101193.66
2022-11-03T00:45:24.413Z,101196.31
2022-11-03T00:46:27.648Z,101190.88
2022-11-03T00:47:29.189Z,101196.19
2022-11-03T00:48:31.082Z,101196.19
2022-11-03T00:49:33.535Z,101190.03
2022-11-03T00:50:35.098Z,101198.84
2022-11-03T00:51:37.618Z,101195.38
2022-11-03T00:52:39.111Z,101197.03
2022-11-03T00:53:43.511Z,101185.53
2022-11-03T00:54:45.566Z,101185.53
2022-11-03T00:55:51.454Z,101188.19
2022-11-03T00:56:53.020Z,101186.41
2022-11-03T00:57:55.491Z,101186.41
2022-11-03T00:58:58.358Z,101186.53
2022-11-03T01:00:00.815Z,101183.88
2022-11-03T01:01:07.349Z,101189.19
2022-11-03T01:02:09.972Z,101183.88
2022-11-03T01:03:11.538Z,101187.50
2022-11-03T01:04:32.275Z,101189.19
2022-11-03T01:05:52.646Z,101187.50
2022-11-03T01:06:57.063Z,101186.63
2022-11-03T01:09:06.011Z,101185.78
2022-11-03T01:10:09.575Z,101186.78
2022-11-03T01:11:34.254Z,101184.13
2022-11-03T01:12:36.761Z,101184.13
2022-11-03T01:13:39.241Z,101187.75
2022-11-03T01:14:44.678Z,101175.41
2022-11-03T01:15:46.178Z,101185.19
2022-11-03T01:16:48.631Z,101184.38
2022-11-03T01:17:51.090Z,101182.66
2022-11-03T01:18:53.264Z,101182.66
2022-11-03T01:19:56.339Z,101175.66
2022-11-03T01:20:57.935Z,101182.91
2022-11-03T01:22:00.539Z,101172.28
2022-11-03T01:23:02.050Z,101174.94
2022-11-03T01:24:05.719Z,101172.38
2022-11-03T01:25:08.019Z,101164.53
2022-11-03T01:26:13.759Z,101172.53
2022-11-03T01:27:17.804Z,101166.34
2022-11-03T01:28:20.333Z,101162.84
2022-11-03T01:29:21.862Z,101161.28
2022-11-03T01:30:24.430Z,101156.81
2022-11-03T01:31:27.299Z,101156.81
2022-11-03T01:32:29.787Z,101155.09
2022-11-03T01:33:31.633Z,101152.56
2022-11-03T01:34:34.113Z,101146.41
2022-11-03T01:35:35.882Z,101154.50
2022-11-03T01:36:39.476Z,101143.88
2022-11-03T01:37:40.989Z,101148.34
2022-11-03T01:38:44.469Z,101143.03
2022-11-03T01:39:46.043Z,101144.00
2022-11-03T01:40:48.543Z,101137.69
2022-11-03T01:41:53.605Z,101145.81
2022-11-03T01:42:55.110Z,101139.66
2022-11-03T01:44:33.973Z,101135.28
2022-11-03T01:45:35.531Z,101137.94
2022-11-03T01:46:43.639Z,101127.44
2022-11-03T01:47:47.725Z,101131.06
2022-11-03T01:49:01.049Z,101128.41
2022-11-03T01:50:06.750Z,101120.53
2022-11-03T01:51:10.783Z,101116.94
2022-11-03T01:52:18.473Z,101116.06
2022-11-03T01:53:22.268Z,101116.94
2022-11-03T01:54:28.167Z,101121.38
2022-11-03T01:55:35.641Z,101115.13
2022-11-03T01:56:43.190Z,101112.47
2022-11-03T01:57:53.559Z,101111.59
2022-11-03T01:58:56.008Z,101109.91
2022-11-03T01:59:59.844Z,101109.91
2022-11-03T02:06:03.820Z,101093.97
2022-11-03T02:07:13.266Z,101093.97
2022-11-03T02:08:19.147Z,101093.13
2022-11-03T02:09:20.881Z,101089.63
2022-11-03T02:10:24.687Z,101095.81
2022-11-03T02:11:44.161Z,101093.97
2022-11-03T02:12:49.104Z,101088.66
2022-11-03T02:13:50.642Z,101093.97
2022-11-03T02:14:56.688Z,101084.31
2022-11-03T02:15:59.674Z,101088.66
2022-11-03T02:17:07.029Z,101082.50
2022-11-03T02:18:11.043Z,101086.97
2022-11-03T02:19:23.947Z,101078.00
2022-11-03T02:20:29.160Z,101084.19
2022-11-03T02:21:42.159Z,101081.50
2022-11-03T02:23:10.594Z,101081.66
2022-11-03T02:24:18.580Z,101075.50
2022-11-03T02:25:36.115Z,101074.63
2022-11-03T02:26:38.274Z,101076.44
2022-11-03T02:27:41.550Z,101069.31
2022-11-03T02:28:43.352Z,101068.38
2022-11-03T02:29:46.002Z,101069.31
2022-11-03T02:30:56.037Z,101066.66
2022-11-03T02:32:06.291Z,101059.53
2022-11-03T02:33:17.066Z,101059.53
2022-11-03T02:34:24.562Z,101056.03
2022-11-03T02:35:31.186Z,101059.53
2022-11-03T02:36:41.882Z,101053.38
2022-11-03T02:37:47.665Z,101053.38
2022-11-03T02:38:58.395Z,101050.00
2022-11-03T02:40:04.971Z,101044.69
2022-11-03T02:41:10.217Z,101042.03
2022-11-03T02:42:13.362Z,101042.75
2022-11-03T02:43:18.264Z,101037.44
2022-11-03T02:44:20.684Z,101032.09
2022-11-03T02:45:26.055Z,101037.44
2022-11-03T02:46:30.724Z,101026.78
2022-11-03T02:47:34.691Z,101024.13
2022-11-03T02:48:38.272Z,101025.69
2022-11-03T02:49:41.070Z,101031.00
2022-11-03T02:50:43.626Z,101026.53
2022-11-03T02:51:45.118Z,101026.53
2022-11-03T02:52:48.326Z,101025.59
2022-11-03T02:54:04.436Z,101015.91
2022-11-03T02:55:13.892Z,101021.13
2022-11-03T02:56:20.836Z,101017.59
2022-11-03T02:57:25.753Z,101016.75
2022-11-03T02:58:34.238Z,101019.28
2022-11-03T02:59:48.326Z,101007.94
2022-11-03T03:00:55.013Z,101011.28
2022-11-03T03:02:06.108Z,101006.97
2022-11-03T03:03:11.636Z,101009.50
2022-11-03T03:04:18.993Z,101004.19
2022-11-03T03:05:25.068Z,101011.19
2022-11-03T03:06:34.382Z,101006.72
2022-11-03T03:07:38.751Z,101006.84
2022-11-03T03:08:45.634Z,101005.03
2022-11-03T03:09:54.220Z,101005.16
2022-11-03T03:11:01.354Z,101010.34
2022-11-03T03:12:06.604Z,101009.50
2022-11-03T03:13:14.573Z,101013.00
2022-11-03T03:14:20.044Z,100996.19
2022-11-03T03:15:26.975Z,101005.97
2022-11-03T03:16:35.763Z,100999.00
2022-11-03T03:17:46.023Z,100999.00
2022-11-03T03:18:51.508Z,100988.22
2022-11-03T03:20:00.164Z,100996.34
2022-11-03T03:21:04.519Z,100993.69
2022-11-03T03:22:15.626Z,100994.53
2022-11-03T03:23:20.680Z,100994.53
2022-11-03T03:24:31.345Z,100984.84
2022-11-03T03:25:42.451Z,100990.16
2022-11-03T03:26:46.673Z,100986.66
2022-11-03T03:27:54.707Z,100985.72
2022-11-03T03:28:59.696Z,100976.88
2022-11-03T03:30:06.101Z,100980.38
2022-11-03T03:31:11.838Z,100984.84
2022-11-03T03:32:16.587Z,100986.56
2022-11-03T03:33:18.965Z,100980.97
2022-11-03T03:34:34.442Z,100979.28
2022-11-03T03:35:43.123Z,100978.19
2022-11-03T03:36:48.629Z,100975.53
2022-11-03T03:37:55.116Z,100971.91
2022-11-03T03:39:00.773Z,100978.91
2022-11-03T03:40:08.270Z,100970.94
2022-11-03T03:41:21.611Z,100970.09
2022-11-03T03:42:28.060Z,100973.59
2022-11-03T03:43:32.670Z,100975.41
2022-11-03T03:44:38.603Z,100975.41
2022-11-03T03:45:44.866Z,100968.41
2022-11-03T03:46:53.246Z,100961.28
2022-11-03T03:47:57.683Z,100968.41
2022-11-03T03:49:00.643Z,100957.66
2022-11-03T03:50:02.265Z,100960.31
2022-11-03T03:51:06.886Z,100957.66
2022-11-03T03:52:09.405Z,100955.00
2022-11-03T03:53:13.724Z,100958.34
2022-11-03T03:54:15.254Z,100959.22
2022-11-03T03:56:31.388Z,100950.28
2022-11-03T03:57:34.129Z,100950.13
2022-11-03T03:58:37.027Z,100950.13
2022-11-03T03:59:39.588Z,100943.69
2022-11-03T04:00:41.916Z,100943.59
2022-11-03T04:01:44.546Z,100952.41
2022-11-03T04:02:46.151Z,100943.44
2022-11-03T04:03:48.639Z,100945.03
2022-11-03T04:04:50.245Z,100939.72
2022-11-03T04:05:54.773Z,100947.53
2022-11-03T04:07:11.247Z,100943.06
2022-11-03T04:08:14.691Z,100945.72
2022-11-03T04:09:16.174Z,100942.22
2022-11-03T04:10:21.049Z,100940.53
2022-11-03T04:11:40.862Z,100941.38
2022-11-03T04:13:01.982Z,100939.72
2022-11-03T04:14:23.590Z,100938.00
2022-11-03T04:15:43.808Z,100946.84
2022-11-03T04:17:04.140Z,100934.41
2022-11-03T04:18:24.426Z,100935.22
2022-11-03T04:19:44.678Z,100930.88
2022-11-03T04:21:04.990Z,100939.72
2022-11-03T04:22:17.832Z,100938.72
2022-11-03T04:23:19.921Z,100940.41
2022-11-03T04:24:22.439Z,100931.59
2022-11-03T04:25:23.938Z,100937.75
2022-11-03T04:26:28.478Z,100932.31
2022-11-03T04:27:32.884Z,100935.69
2022-11-03T04:28:35.471Z,100944.38
2022-11-03T04:29:38.556Z,100937.25
2022-11-03T04:30:41.363Z,100935.31
2022-11-03T04:31:42.954Z,100934.31
2022-11-03T04:32:47.340Z,100925.50
2022-11-03T04:33:49.430Z,100932.50
2022-11-03T04:34:51.864Z,100934.22
2022-11-03T04:35:55.370Z,100935.06
2022-11-03T04:36:57.849Z,100928.75
2022-11-03T04:38:04.614Z,100929.47
2022-11-03T04:39:16.183Z,100925.81
2022-11-03T04:40:19.265Z,100919.53
2022-11-03T04:41:24.229Z,100927.50
2022-11-03T04:42:27.180Z,100923.16
2022-11-03T04:43:33.551Z,100918.69
2022-11-03T04:44:36.026Z,100916.03
2022-11-03T04:45:38.966Z,100910.72
2022-11-03T04:46:41.486Z,100908.19
2022-11-03T04:47:43.571Z,100917.84
2022-11-03T04:48:47.426Z,100910.84
2022-11-03T04:49:50.335Z,100906.50
2022-11-03T04:50:55.055Z,100904.81
2022-11-03T04:51:56.605Z,100904.81
2022-11-03T04:52:59.713Z,100903.94
2022-11-03T04:54:03.423Z,100909.41
2022-11-03T04:55:11.700Z,100892.75
2022-11-03T04:56:15.997Z,100905.06
2022-11-03T04:57:19.124Z,100907.72
2022-11-03T04:58:23.917Z,100900.00
2022-11-03T04:59:26.612Z,100893.00
2022-11-03T05:00:28.243Z,100886.84
2022-11-03T05:01:32.867Z,100893.00
2022-11-03T05:02:34.680Z,100884.31
2022-11-03T05:03:40.406Z,100885.16
2022-11-03T05:04:43.490Z,100890.47
2022-11-03T05:05:45.100Z,100884.31
2022-11-03T05:06:51.250Z,100882.63
2022-11-03T05:07:54.496Z,100882.63
2022-11-03T05:09:01.592Z,100879.94
2022-11-03T05:10:06.400Z,100885.28
2022-11-03T05:11:16.030Z,100882.63
2022-11-03T05:12:19.107Z,100885.28
2022-11-03T05:13:24.992Z,100873.94
2022-11-03T05:14:30.138Z,100870.44
2022-11-03T05:15:35.367Z,100866.81
2022-11-03T05:16:39.249Z,100866.91
2022-11-03T05:17:40.778Z,100867.78
2022-11-03T05:18:45.409Z,100867.78
2022-11-03T05:19:47.155Z,100859.78
2022-11-03T05:20:53.098Z,100854.34
2022-11-03T05:21:59.085Z,100862.34
2022-11-03T05:23:01.065Z,100860.53
2022-11-03T05:24:11.038Z,100851.69
2022-11-03T05:25:37.920Z,100852.66
2022-11-03T05:26:40.543Z,100850.84
2022-11-03T05:27:42.068Z,100837.66
2022-11-03T05:28:48.314Z,100847.34
2022-11-03T05:29:53.972Z,100852.66
2022-11-03T05:30:58.985Z,100852.78
2022-11-03T05:32:02.171Z,100842.88
2022-11-03T05:33:19.376Z,100857.00
2022-11-03T05:34:35.936Z,100832.22
2022-11-03T05:35:37.441Z,100842.03
2022-11-03T05:36:40.037Z,100835.84
2022-11-03T05:37:41.944Z,100843.72
2022-11-03T05:38:44.419Z,100835.75
2022-11-03T05:39:47.556Z,100836.72
2022-11-03T05:40:52.417Z,100844.69
2022-11-03T05:41:54.730Z,100832.22
2022-11-03T05:43:00.023Z,100834.03
2022-11-03T05:44:03.205Z,100833.09
2022-11-03T05:45:16.791Z,100828.72
2022-11-03T05:46:18.322Z,100831.38
2022-11-03T05:47:26.889Z,100826.06
2022-11-03T05:48:32.592Z,100821.72
2022-11-03T05:49:35.185Z,100827.88
2022-11-03T05:50:36.709Z,100822.72
2022-11-03T05:51:42.665Z,100819.91
2022-11-03T05:52:46.238Z,100820.75
2022-11-03T05:53:51.428Z,100824.38
2022-11-03T05:54:55.911Z,100820.06
2022-11-03T05:56:01.810Z,100816.53
2022-11-03T05:57:08.519Z,100819.19
2022-11-03T05:58:20.889Z,100817.50
2022-11-03T05:59:24.951Z,100816.66
2022-11-03T06:00:31.015Z,100807.00
2022-11-03T06:01:35.417Z,100812.34
2022-11-03T06:02:41.107Z,100809.69
2022-11-03T06:03:43.708Z,100820.31
2022-11-03T06:04:45.384Z,100813.03
2022-11-03T06:05:48.205Z,100814.00
2022-11-03T06:06:54.970Z,100814.84
2022-11-03T06:08:00.408Z,100806.88
2022-11-03T06:09:10.306Z,100814.00
2022-11-03T06:10:25.510Z,100813.03
2022-11-03T06:11:32.846Z,100813.03
2022-11-03T06:12:34.347Z,100814.84
2022-11-03T06:13:38.870Z,100809.53
2022-11-03T06:14:40.371Z,100808.56
2022-11-03T06:15:44.783Z,100815.69
2022-11-03T06:16:50.362Z,100809.41
2022-11-03T06:17:53.632Z,100810.22
2022-11-03T06:18:56.323Z,100808.41
2022-11-03T06:20:00.514Z,100805.75
2022-11-03T06:21:08.262Z,100804.91
2022-11-03T06:22:15.654Z,100808.41
2022-11-03T06:23:19.465Z,100798.63
2022-11-03T06:24:23.369Z,100798.63
2022-11-03T06:25:32.220Z,100796.81
2022-11-03T06:26:33.785Z,100795.84
2022-11-03T06:27:36.336Z,100792.34
2022-11-03T06:28:39.162Z,100791.38
2022-11-03T06:29:41.979Z,100790.53
2022-11-03T06:30:44.401Z,100792.19
2022-11-03T06:31:50.246Z,100792.19
2022-11-03T06:32:54.994Z,100792.19
2022-11-03T06:33:58.908Z,100792.19
2022-11-03T06:35:00.594Z,100786.88
2022-11-03T06:36:07.433Z,100787.59
2022-11-03T06:37:21.558Z,100786.75
2022-11-03T06:38:26.748Z,100791.13
2022-11-03T06:39:28.352Z,100783.25
2022-11-03T06:40:35.091Z,100786.75
2022-11-03T06:41:37.177Z,100778.63
2022-11-03T06:42:39.769Z,100782.13
2022-11-03T06:43:43.454Z,100775.84
2022-11-03T06:44:47.569Z,100773.06
2022-11-03T06:45:52.696Z,100766.75
2022-11-03T06:46:56.980Z,100771.22
2022-11-03T06:48:03.316Z,100765.78
2022-11-03T06:49:26.718Z,100759.50
2022-11-03T06:50:32.090Z,100763.97
2022-11-03T06:51:36.785Z,100760.47
2022-11-03T06:52:43.118Z,100761.19
2022-11-03T06:53:45.819Z,100761.19
2022-11-03T06:54:48.345Z,100764.56
2022-11-03T06:55:51.312Z,100763.72
2022-11-03T06:56:53.865Z,100754.78
2022-11-03T06:57:58.525Z,100755.59
2022-11-03T06:59:01.955Z,100749.31
2022-11-03T07:00:32.916Z,100750.16
2022-11-03T07:01:36.633Z,100744.84
2022-11-03T07:02:56.320Z,100740.34
2022-11-03T07:04:03.503Z,100737.69
2022-11-03T07:05:11.039Z,100746.63
2022-11-03T07:06:19.334Z,100742.16
2022-11-03T07:07:24.452Z,100740.34
2022-11-03T07:08:30.861Z,100746.63
2022-11-03T07:09:33.435Z,100743.88
2022-11-03T07:10:36.096Z,100740.34
2022-11-03T07:11:44.584Z,100739.34
2022-11-03T07:12:46.230Z,100739.25
2022-11-03T07:13:51.123Z,100740.09
2022-11-03T07:14:52.755Z,100739.94
2022-11-03T07:15:55.462Z,100728.31
2022-11-03T07:17:01.800Z,100730.88
2022-11-03T07:18:11.033Z,100736.03
2022-11-03T07:19:19.936Z,100735.06
2022-11-03T07:20:21.935Z,100742.91
2022-11-03T07:21:34.112Z,100740.97
2022-11-03T07:22:35.642Z,100745.28
2022-11-03T07:23:40.170Z,100738.88
2022-11-03T07:24:47.733Z,100735.09
2022-11-03T07:25:53.358Z,100740.19
2022-11-03T07:27:03.122Z,100740.88
2022-11-03T07:28:05.827Z,100730.13
2022-11-03T07:29:12.835Z,100732.50
2022-11-03T07:30:20.104Z,100722.44
2022-11-03T07:31:25.857Z,100721.31
2022-11-03T07:32:31.170Z,100720.91
2022-11-03T07:33:33.758Z,100721.59
2022-11-03T07:34:38.034Z,100721.31
2022-11-03T07:36:13.161Z,100715.72
2022-11-03T07:37:05.349Z,100716.44
2022-11-03T07:38:13.455Z,100724.16
2022-11-03T07:39:20.204Z,100717.81
2022-11-03T07:40:23.909Z,100717.56
2022-11-03T07:41:32.862Z,100712.09
2022-11-03T07:42:36.162Z,100719.97
2022-11-03T07:43:38.830Z,100726.66
2022-11-03T07:44:40.750Z,100707.75
2022-11-03T07:45:45.356Z,100718.28
2022-11-03T07:46:48.350Z,100710.13
2022-11-03T07:47:50.930Z,100701.19
2022-11-03T07:48:56.576Z,100706.50
2022-11-03T07:49:59.502Z,100706.22
2022-11-03T07:51:08.210Z,100705.94
2022-11-03T07:52:14.969Z,100703.16
2022-11-03T07:53:25.657Z,100708.31
2022-11-03T07:54:30.465Z,100704.56
2022-11-03T07:55:32.064Z,100689.41
2022-11-03T07:56:38.884Z,100690.13
2022-11-03T07:57:40.548Z,100690.81
2022-11-03T07:58:43.553Z,100692.50
2022-11-03T07:59:49.908Z,100690.53
2022-11-03T08:00:57.709Z,100683.25
2022-11-03T08:02:01.483Z,100692.06
2022-11-03T08:03:04.521Z,100691.25
2022-11-03T08:04:09.232Z,100685.91
2022-11-03T08:05:12.173Z,100686.59
2022-11-03T08:06:18.796Z,100684.91
2022-11-03T08:07:22.848Z,100682.25
2022-11-03T08:08:24.387Z,100684.06
2022-11-03T08:09:27.055Z,100682.41
2022-11-03T08:10:28.591Z,100687.56
2022-11-03T08:11:31.122Z,100686.59
2022-11-03T08:12:32.724Z,100678.47
2022-11-03T08:13:35.485Z,100673.97
2022-11-03T08:14:38.441Z,100679.28
2022-11-03T08:15:39.938Z,100673.00
2022-11-03T08:16:44.994Z,100672.88
2022-11-03T08:17:47.350Z,100671.00
2022-11-03T08:18:51.385Z,100668.34
2022-11-03T08:19:53.903Z,100670.03
2022-11-03T08:20:56.783Z,100668.09
2022-11-03T08:21:59.347Z,100671.56
2022-11-03T08:23:27.169Z,100674.09
2022-11-03T08:24:23.475Z,100668.78
2022-11-03T08:25:25.017Z,100666.97
2022-11-03T08:26:27.770Z,100663.28
2022-11-03T08:27:30.256Z,100656.88
2022-11-03T08:28:33.711Z,100660.50
2022-11-03T08:29:36.249Z,100658.53
2022-11-03T08:30:37.790Z,100660.22
2022-11-03T08:31:40.444Z,100654.19
2022-11-03T08:32:41.955Z,100660.22
2022-11-03T08:33:44.487Z,100658.22
2022-11-03T08:34:46.977Z,100651.25
2022-11-03T08:35:48.615Z,100651.25
2022-11-03T08:36:52.476Z,100652.91
2022-11-03T08:37:54.995Z,100659.94
2022-11-03T08:38:57.591Z,100654.59
2022-11-03T08:39:59.178Z,100649.25
2022-11-03T08:41:02.035Z,100649.97
2022-11-03T08:42:03.792Z,100644.50
2022-11-03T08:43:06.591Z,100647.84
2022-11-03T08:44:09.835Z,100641.53
2022-11-03T08:45:11.784Z,100642.09
2022-11-03T08:46:17.609Z,100645.44
2022-11-03T08:47:19.832Z,100642.66
2022-11-03T08:48:22.899Z,100625.69
2022-11-03T08:49:24.455Z,100620.06
2022-11-03T08:50:26.991Z,100622.56
2022-11-03T08:51:29.496Z,100615.28
2022-11-03T08:52:32.420Z,100619.47
2022-11-03T08:53:35.466Z,100615.81
2022-11-03T08:54:37.040Z,100618.31
2022-11-03T08:55:39.580Z,100612.03
2022-11-03T08:56:41.168Z,100607.53
2022-11-03T08:57:43.709Z,100608.09
2022-11-03T08:58:45.311Z,100609.78
2022-11-03T08:59:47.897Z,100600.81
2022-11-03T09:00:50.896Z,100618.31
2022-11-03T09:01:52.545Z,100612.84
2022-11-03T09:02:55.153Z,100601.19
2022-11-03T09:03:57.758Z,100607.91
2022-11-03T09:04:59.472Z,100600.63
2022-11-03T09:06:02.082Z,100603.13
2022-11-03T09:07:03.625Z,100604.66
2022-11-03T09:10:53.107Z,100597.19
2022-11-03T09:11:54.655Z,100595.38
2022-11-03T09:12:57.119Z,100603.06
2022-11-03T09:13:58.635Z,100593.94
2022-11-03T09:15:01.181Z,100595.50
2022-11-03T09:16:04.157Z,100583.50
2022-11-03T09:17:07.013Z,100597.38
2022-11-03T09:18:09.891Z,100593.59
2022-11-03T09:19:11.648Z,100585.31
2022-11-03T09:20:14.676Z,100577.00
2022-11-03T09:21:16.175Z,100581.19
2022-11-03T09:22:18.968Z,100576.69
2022-11-03T09:23:21.841Z,100562.88
2022-11-03T09:24:24.337Z,100562.75
2022-11-03T09:25:26.988Z,100554.75
2022-11-03T09:26:28.606Z,100552.91
2022-11-03T09:27:31.218Z,100548.41
2022-11-03T09:28:32.940Z,100537.75
2022-11-03T09:29:58.513Z,100541.94
2022-11-03T09:30:58.626Z,100541.09
2022-11-03T09:32:00.193Z,100539.41
2022-11-03T09:33:03.109Z,100537.59
2022-11-03T09:34:04.808Z,100533.94
2022-11-03T09:35:08.794Z,100528.41
2022-11-03T09:36:10.489Z,100520.41
2022-11-03T09:37:13.131Z,100525.63
2022-11-03T09:38:15.031Z,100521.13
2022-11-03T09:39:19.198Z,100519.44
2022-11-03T09:40:22.464Z,100515.78
2022-11-03T09:41:28.205Z,100512.09
2022-11-03T09:42:46.169Z,100508.44
2022-11-03T09:43:49.799Z,100512.81
2022-11-03T09:44:53.956Z,100506.50
2022-11-03T09:45:55.483Z,100499.16
2022-11-03T09:46:58.674Z,100490.97
2022-11-03T09:48:03.168Z,100487.19
2022-11-03T09:49:05.822Z,100486.19
2022-11-03T09:50:14.406Z,100484.22
2022-11-03T09:51:20.567Z,100483.19
2022-11-03T09:52:23.945Z,100479.53
2022-11-03T09:53:26.436Z,100481.22
2022-11-03T09:54:30.886Z,100483.59
2022-11-03T09:55:34.830Z,100483.28
2022-11-03T09:56:37.206Z,100481.28
2022-11-03T09:57:39.671Z,100480.28
2022-11-03T09:58:41.604Z,100471.97
2022-11-03T09:59:45.469Z,100468.84
2022-11-03T10:00:47.654Z,100467.81
2022-11-03T10:01:53.317Z,100470.22
2022-11-03T10:02:56.848Z,100462.88
2022-11-03T10:04:01.626Z,100459.03
2022-11-03T10:05:08.366Z,100460.56
2022-11-03T10:06:15.279Z,100449.72
2022-11-03T10:07:18.219Z,100442.25
2022-11-03T10:08:25.161Z,100435.75
2022-11-03T10:09:31.264Z,100438.97
2022-11-03T10:10:34.569Z,100429.13
2022-11-03T10:11:38.338Z,100430.13
2022-11-03T10:12:40.865Z,100439.81
2022-11-03T10:13:45.986Z,100431.81
2022-11-03T10:14:48.957Z,100430.81
2022-11-03T10:15:50.900Z,100429.78
2022-11-03T10:16:57.038Z,100420.81
2022-11-03T10:17:59.564Z,100434.81
2022-11-03T10:19:01.182Z,100431.16
2022-11-03T10:20:03.803Z,100431.16
2022-11-03T10:21:07.975Z,100432.84
2022-11-03T10:22:10.744Z,100429.16
2022-11-03T10:23:13.236Z,100433.38
2022-11-03T10:24:15.940Z,100430.53
2022-11-03T10:25:36.951Z,100427.72
2022-11-03T10:26:47.724Z,100423.19
2022-11-03T10:27:49.281Z,100422.19
2022-11-03T10:29:03.584Z,100417.53
2022-11-03T10:30:07.899Z,100426.22
2022-11-03T10:31:20.486Z,100426.22
2022-11-03T10:32:30.635Z,100423.38
2022-11-03T10:33:34.336Z,100418.88
2022-11-03T10:34:39.307Z,100411.88
2022-11-03T10:35:42.030Z,100408.19
2022-11-03T10:36:49.548Z,100402.00
2022-11-03T10:37:52.153Z,100401.00
2022-11-03T10:38:55.407Z,100399.19
2022-11-03T10:39:59.268Z,100387.50
2022-11-03T10:41:13.149Z,100391.81
2022-11-03T10:42:21.480Z,100376.50
2022-11-03T10:43:23.072Z,100381.84
2022-11-03T10:44:28.339Z,100375.47
2022-11-03T10:45:30.884Z,100369.13
2022-11-03T10:46:50.308Z,100369.84
2022-11-03T10:48:01.572Z,100369.66
2022-11-03T10:50:23.236Z,100357.97
2022-11-03T10:51:25.759Z,100357.97
2022-11-03T10:53:42.344Z,100345.28
2022-11-03T10:54:44.876Z,100340.63
2022-11-03T10:55:49.458Z,100335.94
2022-11-03T10:56:53.807Z,100334.94
2022-11-03T10:57:57.896Z,100330.59
2022-11-03T10:59:01.874Z,100324.41
2022-11-03T11:00:04.742Z,100328.91
2022-11-03T11:01:12.058Z,100326.25
2022-11-03T11:02:18.559Z,100330.59
2022-11-03T11:03:21.393Z,100319.06
2022-11-03T11:04:23.486Z,100329.75
2022-11-03T11:05:26.120Z,100333.09
2022-11-03T11:06:32.409Z,100324.06
2022-11-03T11:07:36.239Z,100332.78
2022-11-03T11:08:38.898Z,100320.94
2022-11-03T11:09:40.614Z,100324.25
2022-11-03T11:10:45.869Z,100316.09
2022-11-03T11:12:03.460Z,100311.41
2022-11-03T11:13:24.278Z,100321.94
2022-11-03T11:14:38.997Z,100320.09
2022-11-03T11:15:43.364Z,100328.63
2022-11-03T11:16:50.802Z,100318.44
2022-11-03T11:17:53.349Z,100317.44
2022-11-03T11:19:03.853Z,100325.13
2022-11-03T11:20:43.117Z,100317.75
2022-11-03T11:22:02.405Z,100308.41
2022-11-03T11:23:52.511Z,100317.78
2022-11-03T11:24:59.507Z,100311.25
2022-11-03T11:26:16.335Z,100306.41
2022-11-03T11:28:07.632Z,100312.59
2022-11-03T11:29:44.771Z,100320.97
2022-11-03T11:31:23.557Z,100308.94
2022-11-03T11:32:58.960Z,100311.09
2022-11-03T11:34:34.711Z,100317.13
2022-11-03T11:36:19.722Z,100317.13
2022-11-03T11:37:36.609Z,100317.78
2022-11-03T11:39:09.311Z,100320.13
2022-11-03T11:40:36.794Z,100307.41
2022-11-03T11:42:06.407Z,100303.75
2022-11-03T11:43:29.363Z,100309.94
2022-11-03T11:44:57.871Z,100296.72
2022-11-03T11:46:33.706Z,100283.34
2022-11-03T11:47:51.807Z,100274.84
2022-11-03T11:49:14.643Z,100279.34
2022-11-03T11:50:32.887Z,100263.66
2022-11-03T11:51:35.468Z,100248.59
2022-11-03T11:52:42.982Z,100251.94
2022-11-03T11:53:50.958Z,100253.75
2022-11-03T11:54:56.166Z,100255.44
2022-11-03T11:56:00.398Z,100250.94
2022-11-03T11:57:01.905Z,100248.25
2022-11-03T11:58:06.702Z,100250.94
2022-11-03T11:59:22.987Z,100239.41
2022-11-03T12:00:32.018Z,100238.56
2022-11-03T12:01:37.658Z,100225.53
2022-11-03T12:02:39.352Z,100226.56
2022-11-03T12:03:45.256Z,100219.53
2022-11-03T12:04:47.796Z,100215.34
2022-11-03T12:05:50.867Z,100215.50
2022-11-03T12:06:53.410Z,100207.47
2022-11-03T12:07:55.294Z,100210.34
2022-11-03T12:09:06.588Z,100216.50
2022-11-03T12:10:08.661Z,100207.81
2022-11-03T12:11:13.671Z,100190.09
2022-11-03T12:12:34.360Z,100194.78
2022-11-03T12:13:47.441Z,100189.59
2022-11-03T12:14:50.010Z,100187.13
2022-11-03T12:15:56.526Z,100184.59
2022-11-03T12:17:00.199Z,100184.59
2022-11-03T12:18:29.445Z,100184.59
2022-11-03T12:19:42.399Z,100180.09
2022-11-03T12:20:47.054Z,100175.44
2022-11-03T12:21:51.869Z,100183.44
2022-11-03T12:22:53.422Z,100167.41
2022-11-03T12:23:55.927Z,100169.91
2022-11-03T12:24:59.859Z,100165.38
2022-11-03T12:26:01.494Z,100160.88
2022-11-03T12:27:18.093Z,100145.69
2022-11-03T12:28:32.470Z,100151.84
2022-11-03T12:29:35.373Z,100153.34
2022-11-03T12:30:40.069Z,100142.66
2022-11-03T12:31:43.347Z,100152.19
2022-11-03T12:32:46.969Z,100136.97
2022-11-03T12:33:49.530Z,100137.63
2022-11-03T12:34:51.131Z,100134.13
2022-11-03T12:35:53.681Z,100145.50
2022-11-03T12:36:56.467Z,100145.66
2022-11-03T12:37:59.509Z,100132.28
2022-11-03T12:39:01.105Z,100128.13
2022-11-03T12:40:03.888Z,100131.78
2022-11-03T12:41:20.410Z,100130.13
2022-11-03T12:42:24.715Z,100119.59
2022-11-03T12:43:27.221Z,100112.56
2022-11-03T12:44:28.813Z,100110.94
2022-11-03T12:45:31.423Z,100107.41